createdAt,value
2022-10-04T00:00:26.433Z,2.10
2022-10-04T00:03:08.916Z,1.60
2022-10-04T00:05:42.292Z,2.10
2022-10-04T00:08:29.213Z,1.70
2022-10-04T00:11:09.778Z,1.70
2022-10-04T00:13:40.216Z,1.80
2022-10-04T00:16:21.230Z,1.63
2022-10-04T00:18:51.781Z,1.50
2022-10-04T00:21:20.702Z,1.60
2022-10-04T00:23:51.009Z,1.77
2022-10-04T00:27:13.823Z,1.50
2022-10-04T00:29:46.829Z,1.50
2022-10-04T00:32:32.114Z,1.90
2022-10-04T00:35:02.062Z,1.90
2022-10-04T00:37:58.866Z,1.60
2022-10-04T00:40:46.698Z,1.80
2022-10-04T00:43:23.940Z,1.37
2022-10-04T00:46:00.533Z,1.70
2022-10-04T00:48:39.940Z,1.60
2022-10-04T00:51:25.763Z,1.70
2022-10-04T00:54:08.420Z,1.33
2022-10-04T00:56:49.017Z,1.67
2022-10-04T00:59:42.065Z,1.53
2022-10-04T01:02:20.180Z,1.77
2022-10-04T01:04:57.341Z,1.57
2022-10-04T01:07:34.163Z,1.53
2022-10-04T01:10:10.384Z,1.73
2022-10-04T01:12:52.854Z,1.77
2022-10-04T01:15:38.499Z,1.97
2022-10-04T01:18:28.970Z,1.70
2022-10-04T01:21:04.608Z,2.23
2022-10-04T01:23:43.548Z,1.50
2022-10-04T01:26:40.866Z,1.83
2022-10-04T01:29:15.111Z,1.70
2022-10-04T01:31:47.903Z,2.20
2022-10-04T01:34:19.711Z,1.50
2022-10-04T01:36:52.695Z,1.93
2022-10-04T01:39:27.634Z,1.77
2022-10-04T01:42:05.379Z,1.87
2022-10-04T01:44:46.007Z,1.60
2022-10-04T01:47:20.399Z,1.93
2022-10-04T01:49:52.082Z,1.73
2022-10-04T01:52:29.329Z,2.17
2022-10-04T01:55:10.911Z,1.70
2022-10-04T01:57:47.795Z,1.90
2022-10-04T02:00:18.724Z,1.80
2022-10-04T02:02:57.060Z,1.63
2022-10-04T02:05:34.633Z,1.93
2022-10-04T02:08:12.130Z,1.97
2022-10-04T02:10:43.831Z,2.10
2022-10-04T02:13:18.761Z,2.10
2022-10-04T02:15:50.695Z,2.00
2022-10-04T02:19:12.521Z,1.90
2022-10-04T02:21:42.170Z,1.80
2022-10-04T02:24:12.328Z,2.20
2022-10-04T02:26:43.591Z,1.90
2022-10-04T02:29:12.601Z,2.20
2022-10-04T02:31:59.472Z,2.00
2022-10-04T02:34:28.412Z,2.10
2022-10-04T02:36:57.539Z,1.90
2022-10-04T02:39:33.443Z,2.40
2022-10-04T02:42:14.147Z,2.30
2022-10-04T02:44:52.030Z,2.50
2022-10-04T02:47:30.241Z,2.40
2022-10-04T02:50:08.672Z,2.60
2022-10-04T02:52:47.684Z,2.43
2022-10-04T02:55:28.052Z,2.57
2022-10-04T02:58:01.258Z,2.30
2022-10-04T03:00:33.239Z,2.23
2022-10-04T03:03:24.672Z,2.50
2022-10-04T03:06:05.966Z,2.23
2022-10-04T03:08:45.717Z,2.30
2022-10-04T03:11:17.354Z,2.60
2022-10-04T03:13:53.344Z,2.23
2022-10-04T03:16:23.983Z,2.00
2022-10-04T03:18:58.180Z,1.87
2022-10-04T03:21:29.073Z,1.93
2022-10-04T03:24:00.978Z,1.70
2022-10-04T03:26:38.251Z,2.20
2022-10-04T03:29:12.544Z,2.10
2022-10-04T03:31:47.275Z,1.80
2022-10-04T03:34:22.643Z,1.80
2022-10-04T03:36:59.309Z,1.53
2022-10-04T03:39:34.079Z,1.40
2022-10-04T03:42:12.294Z,2.10
2022-10-04T03:45:26.921Z,1.50
2022-10-04T03:48:52.402Z,1.60
2022-10-04T03:51:26.521Z,2.00
2022-10-04T03:53:59.088Z,2.03
2022-10-04T03:56:35.062Z,1.80
2022-10-04T03:59:06.906Z,2.20
2022-10-04T04:02:08.419Z,2.60
2022-10-04T04:05:00.011Z,1.90
2022-10-04T04:07:38.507Z,2.30
2022-10-04T04:10:24.415Z,2.37
2022-10-04T04:12:58.881Z,3.20
2022-10-04T04:15:33.362Z,2.60
2022-10-04T04:19:24.963Z,2.70
2022-10-04T04:22:01.032Z,2.40
2022-10-04T04:24:37.152Z,2.80
2022-10-04T04:28:35.582Z,3.20
2022-10-04T04:31:19.717Z,2.57
2022-10-04T04:34:00.882Z,3.07
2022-10-04T04:42:15.219Z,3.57
2022-10-04T04:47:34.113Z,2.53
2022-10-04T04:49:33.241Z,3.00
2022-10-04T04:52:04.968Z,3.10
2022-10-04T04:54:36.734Z,2.57
2022-10-04T04:57:08.477Z,2.40
2022-10-04T04:59:42.168Z,2.90
2022-10-04T05:02:33.550Z,2.50
2022-10-04T05:05:33.198Z,2.70
2022-10-04T05:08:16.421Z,2.87
2022-10-04T05:10:55.626Z,3.10
2022-10-04T05:13:41.358Z,2.90
2022-10-04T05:16:20.364Z,2.57
2022-10-04T05:18:55.710Z,2.97
2022-10-04T05:21:33.289Z,2.70
2022-10-04T05:24:15.822Z,2.90
2022-10-04T05:26:45.818Z,2.53
2022-10-04T05:29:36.008Z,3.10
2022-10-04T05:32:27.595Z,3.20
2022-10-04T05:34:57.332Z,3.47
2022-10-04T05:37:56.447Z,3.77
2022-10-04T05:40:41.969Z,3.43
2022-10-04T05:43:31.679Z,2.83
2022-10-04T05:46:23.978Z,3.70
2022-10-04T05:49:00.291Z,3.87
2022-10-04T05:51:37.744Z,3.40
2022-10-04T05:54:11.752Z,3.53
2022-10-04T05:57:27.509Z,2.97
2022-10-04T06:00:17.830Z,2.70
2022-10-04T06:03:26.743Z,3.10
2022-10-04T06:06:00.782Z,3.17
2022-10-04T06:08:50.756Z,2.87
2022-10-04T06:11:48.229Z,2.77
2022-10-04T06:14:55.056Z,2.77
2022-10-04T06:18:04.468Z,2.53
2022-10-04T06:21:01.581Z,2.20
2022-10-04T06:23:36.479Z,2.47
2022-10-04T06:26:14.148Z,2.63
2022-10-04T06:28:51.650Z,2.17
2022-10-04T06:31:57.397Z,2.30
2022-10-04T06:35:18.449Z,1.93
2022-10-04T06:38:28.007Z,1.70
2022-10-04T06:41:17.987Z,2.13
2022-10-04T06:44:08.104Z,1.97
2022-10-04T06:46:49.737Z,1.80
2022-10-04T06:49:43.600Z,1.93
2022-10-04T06:52:30.071Z,1.80
2022-10-04T06:55:33.500Z,1.97
2022-10-04T06:58:45.809Z,2.10
2022-10-04T07:01:28.518Z,2.00
2022-10-04T07:04:14.188Z,1.90
2022-10-04T07:06:54.216Z,1.70
2022-10-04T07:09:29.019Z,2.07
2022-10-04T07:12:08.083Z,1.70
2022-10-04T07:14:44.826Z,1.47
2022-10-04T07:17:25.046Z,2.30
2022-10-04T07:19:57.298Z,2.10
2022-10-04T07:22:36.146Z,1.80
2022-10-04T07:25:18.145Z,2.00
2022-10-04T07:28:15.089Z,2.17
2022-10-04T07:30:53.057Z,2.20
2022-10-04T07:33:29.377Z,2.03
2022-10-04T07:37:41.863Z,1.93
2022-10-04T07:40:25.689Z,2.40
2022-10-04T07:43:00.931Z,2.43
2022-10-04T07:45:34.478Z,2.50
2022-10-04T07:48:22.416Z,2.20
2022-10-04T07:51:20.550Z,2.10
2022-10-04T07:53:59.689Z,2.03
2022-10-04T07:56:41.116Z,2.10
2022-10-04T07:59:42.751Z,2.30
2022-10-04T08:02:31.156Z,2.20
2022-10-04T08:05:22.320Z,2.20
2022-10-04T08:08:33.899Z,1.87
2022-10-04T08:11:26.046Z,2.20
2022-10-04T08:14:27.085Z,1.70
2022-10-04T08:17:19.363Z,1.97
2022-10-04T08:20:16.825Z,1.93
2022-10-04T08:23:19.754Z,1.87
2022-10-04T08:26:09.059Z,1.73
2022-10-04T08:29:08.502Z,1.80
2022-10-04T08:32:00.835Z,2.10
2022-10-04T08:35:03.332Z,1.97
2022-10-04T08:37:54.099Z,2.10
2022-10-04T08:41:21.176Z,1.90
2022-10-04T08:44:36.230Z,2.13
2022-10-04T08:48:18.406Z,1.80
2022-10-04T08:51:40.061Z,1.87
2022-10-04T08:55:00.568Z,2.00
2022-10-04T08:58:37.659Z,1.97
2022-10-04T09:01:56.935Z,1.73
2022-10-04T09:05:28.817Z,1.77
2022-10-04T09:08:49.148Z,2.23
2022-10-04T09:11:58.681Z,1.73
2022-10-04T09:15:16.145Z,1.70
2022-10-04T09:17:56.468Z,1.60
2022-10-04T09:20:59.819Z,1.60
2022-10-04T09:24:24.625Z,1.90
2022-10-04T09:27:04.345Z,1.57
2022-10-04T09:30:17.301Z,1.87
2022-10-04T09:33:41.947Z,1.77
2022-10-04T09:36:55.913Z,2.07
2022-10-04T09:46:00.215Z,1.67
2022-10-04T09:48:39.999Z,1.90
2022-10-04T09:51:52.875Z,1.83
2022-10-04T09:54:52.134Z,2.00
2022-10-04T09:57:39.446Z,2.07
2022-10-04T10:00:23.358Z,2.30
2022-10-04T10:03:35.496Z,1.80
2022-10-04T10:06:46.685Z,1.80
2022-10-04T10:09:46.471Z,2.00
2022-10-04T10:13:14.208Z,1.50
2022-10-04T10:16:00.489Z,1.63
2022-10-04T10:18:50.042Z,1.43
2022-10-04T10:21:45.223Z,1.90
2022-10-04T10:25:14.585Z,1.70
2022-10-04T10:28:15.244Z,1.70
2022-10-04T10:31:14.384Z,1.80
2022-10-04T10:34:41.221Z,1.70
2022-10-04T10:37:16.127Z,1.50
2022-10-04T10:40:18.034Z,1.30
2022-10-04T10:43:26.979Z,1.60
2022-10-04T10:46:28.973Z,1.97
2022-10-04T10:49:32.474Z,1.30
2022-10-04T10:52:44.759Z,1.30
2022-10-04T10:55:42.803Z,1.57
2022-10-04T10:59:12.590Z,1.23
2022-10-04T11:02:42.271Z,1.97
2022-10-04T11:06:10.766Z,22.13
2022-10-04T11:09:32.816Z,37.13
2022-10-04T11:12:39.239Z,7.97
2022-10-04T11:15:51.927Z,18.13
2022-10-04T11:19:11.074Z,4.07
2022-10-04T11:22:36.020Z,2.20
2022-10-04T11:25:59.819Z,1.70
2022-10-04T11:28:47.000Z,1.40
2022-10-04T11:31:59.622Z,1.47
2022-10-04T11:35:45.037Z,1.57
2022-10-04T11:38:35.855Z,1.20
2022-10-04T11:41:35.539Z,1.20
2022-10-04T11:44:31.127Z,1.10
2022-10-04T11:47:17.534Z,1.43
2022-10-04T11:50:12.506Z,1.23
2022-10-04T11:53:20.152Z,1.00
2022-10-04T11:56:17.254Z,1.27
2022-10-04T11:59:27.619Z,1.10
2022-10-04T12:02:29.090Z,1.37
2022-10-04T12:05:51.020Z,1.03
2022-10-04T12:08:50.771Z,1.67
2022-10-04T12:12:24.151Z,1.20
2022-10-04T12:15:23.554Z,0.97
2022-10-04T12:18:49.208Z,1.37
2022-10-04T12:21:39.132Z,1.30
2022-10-04T12:24:34.112Z,1.20
2022-10-04T12:28:25.370Z,1.37
2022-10-04T12:31:24.070Z,1.40
2022-10-04T12:34:05.271Z,1.23
2022-10-04T12:37:31.380Z,1.70
2022-10-04T12:40:46.008Z,1.10
2022-10-04T12:43:30.366Z,1.23
2022-10-04T12:46:19.695Z,1.40
2022-10-04T12:49:09.348Z,1.17
2022-10-04T12:51:54.349Z,0.80
2022-10-04T12:54:36.258Z,1.00
2022-10-04T12:57:42.884Z,1.10
2022-10-04T13:00:20.814Z,1.10
2022-10-04T13:03:30.924Z,1.20
2022-10-04T13:23:16.356Z,1.23
2022-10-04T13:26:30.684Z,0.93
2022-10-04T13:29:13.555Z,0.80
2022-10-04T13:31:51.562Z,1.00
2022-10-04T13:39:48.276Z,0.80
2022-10-04T13:42:59.009Z,0.80
2022-10-04T13:45:49.609Z,1.10
2022-10-04T13:48:41.129Z,0.90
2022-10-04T13:51:44.982Z,1.47
2022-10-04T13:54:46.408Z,0.80
2022-10-04T13:57:31.207Z,0.90
2022-10-04T14:00:11.289Z,1.10
2022-10-04T14:03:24.877Z,0.70
2022-10-04T14:06:45.429Z,0.93
2022-10-04T14:09:42.979Z,0.80
2022-10-04T14:13:13.109Z,1.10
2022-10-04T14:16:13.247Z,0.70
2022-10-04T14:19:33.484Z,0.80
2022-10-04T14:22:47.945Z,1.10
2022-10-04T14:26:03.521Z,0.90
2022-10-04T14:29:28.973Z,1.00
2022-10-04T14:32:42.085Z,0.90
2022-10-04T14:35:19.447Z,1.30
2022-10-04T14:38:43.201Z,1.17
2022-10-04T14:42:05.863Z,0.70
2022-10-04T14:50:01.059Z,0.90
2022-10-04T14:52:50.339Z,1.00
2022-10-04T14:56:02.318Z,1.10
2022-10-04T14:59:05.053Z,0.93
2022-10-04T15:01:37.624Z,0.83
2022-10-04T15:04:28.474Z,0.90
2022-10-04T15:07:17.275Z,1.17
2022-10-04T15:10:04.103Z,1.00
2022-10-04T15:13:12.518Z,1.20
2022-10-04T15:16:09.003Z,1.50
2022-10-04T15:18:55.910Z,1.27
2022-10-04T15:21:46.370Z,1.00
2022-10-04T15:24:31.710Z,1.50
2022-10-04T15:27:47.822Z,1.00
2022-10-04T15:30:30.812Z,1.20
2022-10-04T15:33:27.106Z,1.10
2022-10-04T15:36:58.597Z,0.97
2022-10-04T15:40:15.387Z,18.73
2022-10-04T15:44:23.980Z,1.10
2022-10-04T15:47:09.861Z,1.30
2022-10-04T15:49:58.695Z,1.20
2022-10-04T15:53:19.021Z,0.90
2022-10-04T15:56:25.095Z,1.00
2022-10-04T16:03:57.396Z,1.10
2022-10-04T16:06:32.301Z,1.30
2022-10-04T16:09:23.824Z,1.40
2022-10-04T16:12:19.924Z,1.07
2022-10-04T16:25:38.940Z,1.50
2022-10-04T16:33:31.682Z,1.60
2022-10-04T16:36:13.573Z,1.90
2022-10-04T16:39:29.227Z,1.40
2022-10-04T16:42:06.004Z,1.30
2022-10-04T16:44:50.202Z,1.30
2022-10-04T16:47:29.145Z,2.10
2022-10-04T16:50:05.405Z,9.10
2022-10-04T16:52:51.049Z,14.33
2022-10-04T16:55:56.080Z,16.30
2022-10-04T16:59:24.648Z,9.83
2022-10-04T17:03:12.457Z,7.20
2022-10-04T17:07:06.450Z,7.30
2022-10-04T17:09:52.246Z,5.83
2022-10-04T17:18:12.960Z,8.97
2022-10-04T17:21:00.202Z,5.17
2022-10-04T17:24:09.019Z,10.63
2022-10-04T17:27:02.014Z,5.00
2022-10-04T17:34:10.682Z,7.97
2022-10-04T17:37:12.664Z,7.20
2022-10-04T17:40:57.385Z,6.50
2022-10-04T17:44:27.852Z,5.10
2022-10-04T17:47:15.186Z,5.87
2022-10-04T17:50:26.807Z,7.13
2022-10-04T17:57:55.464Z,7.83
2022-10-04T18:00:57.452Z,9.10
2022-10-04T18:03:58.369Z,8.40
2022-10-04T18:06:39.235Z,9.30
2022-10-04T18:10:41.765Z,9.50
2022-10-04T18:14:05.417Z,9.97
2022-10-04T18:16:54.073Z,8.90
2022-10-04T18:19:42.451Z,7.43
2022-10-04T18:22:16.217Z,7.10
2022-10-04T18:24:47.535Z,7.17
2022-10-04T18:27:22.443Z,7.57
2022-10-04T18:31:24.324Z,7.50
2022-10-04T18:39:45.522Z,6.73
2022-10-04T18:42:26.970Z,5.73
2022-10-04T18:45:01.960Z,6.90
2022-10-04T18:47:39.552Z,7.57
2022-10-04T18:50:24.251Z,8.63
2022-10-04T18:53:53.455Z,6.27
2022-10-04T18:56:24.240Z,5.33
2022-10-04T18:59:32.387Z,4.97
2022-10-04T19:02:18.736Z,5.60
2022-10-04T19:05:02.380Z,5.07
2022-10-04T19:07:44.568Z,4.43
2022-10-04T19:10:34.706Z,4.57
2022-10-04T19:13:34.752Z,5.20
2022-10-04T19:16:36.242Z,4.83
2022-10-04T19:19:43.404Z,8.80
2022-10-04T19:23:06.980Z,10.43
2022-10-04T19:26:32.481Z,10.20
2022-10-04T19:29:42.447Z,5.83
2022-10-04T19:32:24.650Z,6.03
2022-10-04T19:35:16.213Z,4.77
2022-10-04T19:37:59.656Z,4.83
2022-10-04T19:40:40.721Z,5.10
2022-10-04T19:48:41.581Z,5.23
2022-10-04T19:51:24.642Z,3.50
2022-10-04T19:54:32.391Z,3.23
2022-10-04T19:57:06.486Z,2.97
2022-10-04T19:59:41.379Z,2.80
2022-10-04T20:02:36.228Z,3.70
2022-10-04T20:05:15.543Z,4.80
2022-10-04T20:07:51.373Z,7.30
2022-10-04T20:10:34.862Z,7.57
2022-10-04T20:13:26.355Z,5.30
2022-10-04T20:20:05.040Z,8.30
2022-10-04T20:22:58.750Z,7.03
2022-10-04T20:26:36.965Z,4.50
2022-10-04T20:29:05.907Z,4.60
2022-10-04T20:31:55.017Z,4.73
2022-10-04T20:34:36.649Z,4.20
2022-10-04T20:37:10.286Z,3.93
2022-10-04T20:39:58.463Z,4.00
2022-10-04T20:42:38.884Z,3.50
2022-10-04T20:45:30.618Z,3.30
2022-10-04T20:48:00.907Z,3.13
2022-10-04T20:50:43.374Z,3.23
2022-10-04T20:57:42.207Z,2.77
2022-10-04T21:00:22.493Z,3.20
2022-10-04T21:02:51.652Z,2.63
2022-10-04T21:05:26.038Z,2.00
2022-10-04T21:08:26.899Z,2.30
2022-10-04T21:11:20.376Z,2.17
2022-10-04T21:13:58.296Z,2.07
2022-10-04T21:16:47.373Z,2.13
2022-10-04T21:19:50.452Z,2.33
2022-10-04T21:22:39.787Z,2.27
2022-10-04T21:25:33.815Z,2.20
2022-10-04T21:28:36.624Z,2.17
2022-10-04T21:31:07.139Z,1.93
2022-10-04T21:33:37.593Z,2.43
2022-10-04T21:36:07.617Z,2.30
2022-10-04T21:38:36.632Z,2.10
2022-10-04T21:41:05.962Z,2.30
2022-10-04T21:43:35.079Z,2.10
2022-10-04T21:46:05.958Z,1.93
2022-10-04T21:49:55.205Z,2.00
2022-10-04T21:52:24.063Z,1.93
2022-10-04T21:54:52.988Z,1.87
2022-10-04T21:57:24.145Z,1.67
2022-10-04T21:59:52.991Z,1.83
2022-10-04T22:02:26.145Z,1.93
2022-10-04T22:04:55.211Z,2.33
2022-10-04T22:07:23.955Z,1.90
2022-10-04T22:09:53.084Z,1.70
2022-10-04T22:12:21.893Z,1.57
2022-10-04T22:14:50.698Z,1.60
2022-10-04T22:17:19.461Z,1.83
2022-10-04T22:19:50.026Z,1.83
2022-10-04T22:22:19.065Z,1.90
2022-10-04T22:24:47.837Z,1.80
2022-10-04T22:27:31.433Z,1.70
2022-10-04T22:30:01.119Z,1.70
2022-10-04T22:32:30.362Z,1.60
2022-10-04T22:35:13.383Z,1.70
2022-10-04T22:37:42.561Z,1.40
2022-10-04T22:40:18.414Z,1.57
2022-10-04T22:42:52.481Z,1.73
2022-10-04T22:45:28.229Z,1.43
2022-10-04T22:48:02.444Z,1.83
2022-10-04T22:50:36.614Z,1.50
2022-10-04T22:53:13.783Z,1.50
2022-10-04T22:55:42.883Z,1.70
2022-10-04T22:58:15.253Z,1.80
2022-10-04T23:00:45.820Z,1.67
2022-10-04T23:03:29.045Z,1.67
2022-10-04T23:06:00.466Z,1.67
2022-10-04T23:08:29.940Z,1.80
2022-10-04T23:11:01.027Z,1.50
2022-10-04T23:13:29.765Z,1.60
2022-10-04T23:16:03.292Z,1.50
2022-10-04T23:18:34.167Z,1.80
2022-10-04T23:21:07.093Z,1.73
2022-10-04T23:23:35.816Z,2.20
2022-10-04T23:26:14.681Z,1.47
2022-10-04T23:28:43.466Z,1.90
2022-10-04T23:31:21.114Z,1.73
2022-10-04T23:33:50.695Z,1.37
2022-10-04T23:36:21.274Z,1.37
2022-10-04T23:38:55.608Z,2.03
2022-10-04T23:41:24.605Z,1.70
2022-10-04T23:43:57.779Z,1.60
2022-10-04T23:46:26.725Z,1.60
2022-10-04T23:48:55.511Z,1.73
2022-10-04T23:51:25.674Z,1.60
2022-10-04T23:53:54.361Z,1.50
2022-10-04T23:56:25.649Z,1.70
2022-10-04T23:58:59.818Z,1.67
